Time;durP1;ratioP1;P1;durP2;ratioP2;P2;SDS_P1;SDS_P2;PMS_P1;PMS_P2;Temp;Humidity;BMP_temperature;BMP_pressure;BME280_temperature;BME280_humidity;BME280_pressure;Samples;Min_cycle;Max_cycle;Signal;HPM_P1;HPM_P2
2023/03/21 00:00:18;;;;;;;;;16.50;14.00;;;;;13.61;58.82;101064.34;4747093;29;46066;-60
2023/03/21 00:02:43;;;;;;;;;17.60;17.00;;;;;13.62;58.51;101075.16;4750083;29;45445;-60
2023/03/21 00:05:09;;;;;;;;;15.75;13.75;;;;;13.47;58.51;101036.88;4752999;29;45750;-60
2023/03/21 00:07:34;;;;;;;;;18.25;14.00;;;;;13.68;58.61;101070.63;4751395;29;45360;-60
2023/03/21 00:10:00;;;;;;;;;16.75;15.50;;;;;13.68;58.32;101063.19;4751430;29;48102;-60
2023/03/21 00:12:25;;;;;;;;;16.00;15.00;;;;;13.70;58.27;101062.97;4752004;29;45365;-64
2023/03/21 00:14:52;;;;;;;;;21.25;20.25;;;;;13.69;57.58;101062.16;4752715;29;45402;-61
2023/03/21 00:17:21;;;;;;;;;15.00;11.60;;;;;13.67;58.05;101061.50;4752607;29;45532;-60
2023/03/21 00:19:47;;;;;;;;;16.80;14.00;;;;;13.59;57.53;101047.16;4752347;29;46898;-60
2023/03/21 00:22:13;;;;;;;;;16.60;15.80;;;;;13.52;58.15;101025.16;4752651;29;45305;-61
2023/03/21 00:24:39;;;;;;;;;30.75;23.50;;;;;13.67;58.59;101064.25;4752866;29;45379;-60
2023/03/21 00:27:05;;;;;;;;;19.80;18.20;;;;;13.65;58.06;101055.38;4752795;29;45599;-61
2023/03/21 00:29:31;;;;;;;;;6.60;5.80;;;;;13.64;58.46;101050.09;4752203;29;46704;-60
2023/03/21 00:31:57;;;;;;;;;22.25;20.50;;;;;13.37;57.87;101015.28;4752420;29;45239;-60
2023/03/21 00:34:22;;;;;;;;;15.75;14.75;;;;;13.54;58.84;101051.44;4752595;29;45375;-61
2023/03/21 00:36:48;;;;;;;;;15.50;15.50;;;;;13.46;59.25;101048.97;4751199;29;45644;-61
2023/03/21 00:39:14;;;;;;;;;16.75;16.75;;;;;12.83;59.45;100951.44;4752624;29;45347;-61
2023/03/21 00:41:40;;;;;;;;;22.00;19.40;;;;;13.45;59.92;101038.13;4751420;29;45455;-59
2023/03/21 00:44:05;;;;;;;;;19.00;15.00;;;;;13.52;60.06;101044.47;4752687;29;45401;-60
2023/03/21 00:46:31;;;;;;;;;21.75;16.50;;;;;13.51;59.90;101045.53;4751491;29;45436;-61
2023/03/21 00:48:56;;;;;;;;;13.75;13.75;;;;;13.46;59.14;101042.59;4751723;29;45654;-60
2023/03/21 00:51:25;;;;;;;;;19.25;15.50;;;;;13.50;59.23;101043.84;4750670;29;45491;-60
2023/03/21 00:53:52;;;;;;;;;19.80;16.20;;;;;13.46;58.93;101039.84;4750806;29;45317;-60
2023/03/21 00:56:18;;;;;;;;;18.60;15.80;;;;;13.46;59.42;101037.94;4752147;29;45567;-60
2023/03/21 00:58:43;;;;;;;;;15.00;12.75;;;;;13.40;58.94;101042.38;4750042;29;45466;-60
2023/03/21 01:01:09;;;;;;;;;19.75;14.00;;;;;13.41;59.31;101038.56;4750794;29;45396;-60
2023/03/21 01:03:41;;;;;;;;;15.50;15.50;;;;;13.33;59.49;101025.06;4751287;29;45395;-60
2023/03/21 01:06:12;;;;;;;;;19.60;14.40;;;;;13.34;59.55;101026.75;4750967;29;45270;-60
2023/03/21 01:08:39;;;;;;;;;14.40;13.40;;;;;13.25;58.47;101017.88;4721328;29;47665;-60
2023/03/21 01:11:07;;;;;;;;;13.80;13.40;;;;;13.21;58.81;101027.69;4735411;29;45405;-60
2023/03/21 01:13:32;;;;;;;;;14.20;13.20;;;;;13.11;59.04;101006.13;4751782;29;45463;-60
2023/03/21 01:15:58;;;;;;;;;16.00;14.25;;;;;13.10;58.54;101001.69;4750391;29;45523;-61
2023/03/21 01:18:26;;;;;;;;;14.00;13.00;;;;;13.21;58.67;101018.56;4738824;29;47365;-60
2023/03/21 01:20:52;;;;;;;;;17.60;15.40;;;;;13.19;58.19;101021.56;4750493;29;45372;-60
2023/03/21 01:23:17;;;;;;;;;15.25;14.00;;;;;13.17;58.45;101011.84;4747198;29;45582;-60
2023/03/21 01:25:43;;;;;;;;;14.25;14.25;;;;;13.14;58.27;101016.69;4751800;29;45325;-61
2023/03/21 01:28:09;;;;;;;;;16.75;13.50;;;;;13.19;58.49;101013.31;4751559;29;46591;-61
2023/03/21 01:30:35;;;;;;;;;15.60;13.80;;;;;13.23;58.09;101013.69;4750083;29;45652;-61
2023/03/21 01:33:00;;;;;;;;;11.75;9.50;;;;;13.14;57.40;101004.84;4750064;29;45431;-59
2023/03/21 01:35:26;;;;;;;;;15.25;14.00;;;;;13.20;58.18;101017.75;4752060;29;45364;-60
2023/03/21 01:37:51;;;;;;;;;11.75;10.75;;;;;13.22;58.22;101007.31;4735204;29;46083;-60
2023/03/21 01:40:22;;;;;;;;;14.25;13.25;;;;;13.25;57.92;101014.31;4749837;29;45369;-59
2023/03/21 01:42:47;;;;;;;;;11.60;9.80;;;;;13.25;57.96;101008.78;4721202;29;45316;-61
2023/03/21 01:45:50;;;;;;;;;13.75;11.75;;;;;13.23;57.89;101008.19;4751713;29;45440;-61
2023/03/21 01:48:16;;;;;;;;;10.80;10.80;;;;;13.25;57.03;101003.28;4751065;29;46331;-61
2023/03/21 01:50:41;;;;;;;;;12.25;10.50;;;;;13.23;56.84;100998.00;4751290;29;45360;-61
2023/03/21 01:53:07;;;;;;;;;12.50;11.50;;;;;13.26;56.36;101005.81;4749743;29;45339;-60
2023/03/21 01:55:32;;;;;;;;;12.50;11.50;;;;;13.22;56.63;100998.19;4750367;29;45869;-60
2023/03/21 01:57:58;;;;;;;;;11.50;10.75;;;;;13.06;56.70;100975.66;4734964;29;46056;-60
2023/03/21 02:00:24;;;;;;;;;12.50;10.25;;;;;12.98;56.67;100959.38;4749724;29;45741;-61
2023/03/21 02:02:50;;;;;;;;;10.25;9.25;;;;;13.19;56.72;100991.25;4749794;29;45388;-60
2023/03/21 02:05:22;;;;;;;;;12.75;11.75;;;;;13.13;56.83;100968.16;4749610;29;45565;-60
2023/03/21 02:07:47;;;;;;;;;11.20;9.60;;;;;13.07;56.22;100968.22;4749349;29;45871;-60
2023/03/21 02:10:13;;;;;;;;;14.25;10.25;;;;;13.10;56.54;100965.88;4749799;29;45479;-61
2023/03/21 02:12:38;;;;;;;;;10.00;6.00;;;;;13.04;56.04;100950.22;4749643;29;45391;-60
2023/03/21 02:15:06;;;;;;;;;12.00;10.00;;;;;13.18;56.02;100984.03;4750904;29;45427;-60
2023/03/21 02:17:40;;;;;;;;;7.40;7.00;;;;;13.01;55.58;100939.63;4748433;29;45692;-60
2023/03/21 02:20:15;;;;;;;;;9.00;7.80;;;;;13.22;55.49;100974.25;4749815;29;46515;-61
2023/03/21 02:23:04;;;;;;;;;9.80;8.00;;;;;13.13;55.43;100968.16;4751568;29;45405;-61
2023/03/21 02:25:48;;;;;;;;;9.40;7.80;;;;;12.93;55.43;100929.75;4751589;29;45379;-60
2023/03/21 02:28:26;;;;;;;;;8.40;8.40;;;;;13.12;55.15;100963.72;4749842;29;48180;-60
2023/03/21 02:31:02;;;;;;;;;5.80;5.80;;;;;12.91;55.15;100922.78;4750784;29;45477;-60
2023/03/21 02:33:33;;;;;;;;;7.80;7.80;;;;;13.01;54.56;100946.00;4749289;29;45447;-60
2023/03/21 02:36:04;;;;;;;;;10.40;9.60;;;;;13.07;54.31;100955.28;4734644;29;45599;-60
2023/03/21 02:38:41;;;;;;;;;6.00;4.40;;;;;13.06;54.88;100956.34;4750363;29;45481;-60
2023/03/21 02:41:28;;;;;;;;;7.60;6.60;;;;;13.09;54.32;100944.91;4706518;29;45759;-59
2023/03/21 02:43:58;;;;;;;;;7.80;6.40;;;;;13.08;54.11;100947.88;4729938;30;45426;-61
2023/03/21 02:46:34;;;;;;;;;6.60;5.80;;;;;13.06;54.54;100930.69;4731903;30;45172;-60
2023/03/21 02:49:02;;;;;;;;;6.20;5.40;;;;;13.05;54.10;100940.91;4717026;30;46640;-61
2023/03/21 02:51:28;;;;;;;;;4.00;4.00;;;;;13.07;54.21;100941.50;4732409;30;45240;-60
2023/03/21 02:53:58;;;;;;;;;13.00;6.00;;;;;12.95;53.84;100929.50;4716586;30;45472;-59
2023/03/21 02:56:24;;;;;;;;;6.60;5.00;;;;;12.98;54.20;100929.09;4702778;30;45380;-60
2023/03/21 02:58:50;;;;;;;;;5.80;5.00;;;;;12.99;53.66;100934.38;4716233;30;46017;-60
2023/03/21 03:01:16;;;;;;;;;6.00;5.25;;;;;13.00;53.54;100937.97;4731409;30;45857;-60
2023/03/21 03:03:41;;;;;;;;;6.00;5.00;;;;;12.98;53.67;100932.66;4731111;30;45393;-60
2023/03/21 03:06:17;;;;;;;;;4.25;4.25;;;;;12.98;53.49;100935.41;4734121;30;45373;-60
2023/03/21 03:09:21;;;;;;;;;5.20;3.80;;;;;13.00;53.67;100936.06;4735094;29;47471;-60
2023/03/21 03:11:47;;;;;;;;;6.00;6.00;;;;;13.00;53.15;100932.44;4733976;30;45369;-60
2023/03/21 03:14:21;;;;;;;;;4.50;3.75;;;;;13.02;53.24;100933.06;4734044;30;45412;-60
2023/03/21 03:16:47;;;;;;;;;5.60;4.40;;;;;13.01;53.46;100923.97;4735731;30;45749;-60
2023/03/21 03:19:29;;;;;;;;;5.25;5.25;;;;;12.96;52.47;100929.28;4733804;30;48096;-60
2023/03/21 03:22:07;;;;;;;;;5.40;4.00;;;;;12.90;52.97;100921.09;4719732;29;45485;-60
2023/03/21 03:24:35;;;;;;;;;6.00;5.40;;;;;12.46;52.70;100861.22;4735510;29;45331;-60
2023/03/21 03:27:25;;;;;;;;;4.20;3.80;;;;;12.80;52.86;100922.41;4735390;29;45475;-59
2023/03/21 03:29:51;;;;;;;;;5.00;5.00;;;;;12.42;52.78;100870.97;4736200;29;46792;-60
2023/03/21 03:32:24;;;;;;;;;4.75;4.75;;;;;12.76;52.99;100918.44;4751551;29;45401;-59
2023/03/21 03:34:50;;;;;;;;;11.20;5.20;;;;;12.44;53.28;100869.69;4751836;29;45489;-61
2023/03/21 03:37:19;;;;;;;;;6.80;5.40;;;;;12.74;53.27;100917.78;4737097;29;45407;-60
2023/03/21 03:40:07;;;;;;;;;4.80;4.80;;;;;12.70;53.49;100911.06;4736911;29;46571;-60
2023/03/21 03:42:37;;;;;;;;;6.40;5.60;;;;;12.73;53.67;100916.97;4752784;29;45490;-60
2023/03/21 03:45:04;;;;;;;;;5.20;5.20;;;;;12.75;53.12;100916.72;4736706;29;45512;-61
2023/03/21 03:47:37;;;;;;;;;6.00;5.20;;;;;12.69;53.70;100915.72;4751924;29;45347;-60
2023/03/21 03:50:13;;;;;;;;;7.00;4.40;;;;;12.69;53.50;100915.72;4736334;29;47858;-60
2023/03/21 03:52:44;;;;;;;;;6.20;5.40;;;;;12.62;53.62;100903.91;4736971;29;45459;-60
2023/03/21 03:55:13;;;;;;;;;5.40;4.20;;;;;12.67;53.59;100915.09;4736581;29;45402;-60
2023/03/21 03:57:39;;;;;;;;;5.00;4.00;;;;;12.59;53.25;100910.69;4751860;29;45479;-60
2023/03/21 04:00:10;;;;;;;;;5.50;4.50;;;;;12.65;53.44;100910.88;4738382;29;46323;-61
2023/03/21 04:02:36;;;;;;;;;4.40;3.80;;;;;12.67;53.46;100908.75;4709343;30;46205;-59
2023/03/21 04:05:03;;;;;;;;;5.00;5.00;;;;;12.63;53.67;100915.78;4733618;30;45401;-60
2023/03/21 04:07:28;;;;;;;;;4.80;4.80;;;;;12.46;53.69;100878.59;4754179;29;45509;-60
2023/03/21 04:09:54;;;;;;;;;5.25;5.25;;;;;12.64;53.64;100909.19;4741248;29;45604;-60
2023/03/21 04:12:19;;;;;;;;;6.25;4.00;;;;;12.57;53.14;100904.56;4734953;29;45437;-61
2023/03/21 04:14:45;;;;;;;;;5.25;5.25;;;;;12.55;53.78;100920.44;4740477;29;45381;-61
2023/03/21 04:17:10;;;;;;;;;4.00;4.00;;;;;12.52;53.27;100917.28;4742525;29;45464;-60
2023/03/21 04:19:36;;;;;;;;;3.00;3.00;;;;;12.30;53.58;100890.97;4753244;29;47143;-60
2023/03/21 04:22:01;;;;;;;;;9.00;6.50;;;;;12.50;53.92;100922.19;4753328;29;45314;-63
2023/03/21 04:24:32;;;;;;;;;6.00;4.50;;;;;12.51;53.57;100924.72;4752871;29;45448;-60
2023/03/21 04:26:57;;;;;;;;;6.00;5.40;;;;;12.56;53.83;100922.16;4753123;29;45242;-60
2023/03/21 04:29:23;;;;;;;;;4.00;4.00;;;;;12.60;53.68;100926.16;4752240;29;45423;-60
2023/03/21 04:31:48;;;;;;;;;5.25;5.25;;;;;12.56;53.40;100924.06;4748485;29;45569;-60
2023/03/21 04:34:14;;;;;;;;;4.25;4.00;;;;;12.57;53.58;100920.25;4751139;29;45316;-61
2023/03/21 04:36:43;;;;;;;;;4.00;4.00;;;;;12.58;53.49;100913.66;4752857;29;45309;-60
2023/03/21 04:39:12;;;;;;;;;6.00;5.80;;;;;12.46;53.51;100897.88;4751916;29;46353;-60
2023/03/21 04:41:47;;;;;;;;;6.20;5.00;;;;;12.48;53.81;100908.63;4752337;29;45291;-59
2023/03/21 04:44:13;;;;;;;;;6.80;6.80;;;;;12.47;54.05;100912.47;4752173;29;45391;-61
2023/03/21 04:46:39;;;;;;;;;5.40;4.00;;;;;12.47;53.70;100907.81;4752653;29;45325;-59
2023/03/21 04:49:05;;;;;;;;;5.25;5.25;;;;;12.38;53.94;100891.78;4752534;29;45477;-60
2023/03/21 04:51:32;;;;;;;;;6.40;4.00;;;;;12.39;54.66;100907.22;4750246;29;45369;-60
2023/03/21 04:53:57;;;;;;;;;6.00;5.00;;;;;12.38;54.16;100909.13;4752302;29;45496;-60
2023/03/21 04:56:31;;;;;;;;;3.75;3.75;;;;;12.41;54.36;100896.81;4750957;29;45308;-59
2023/03/21 04:59:02;;;;;;;;;5.20;4.00;;;;;12.47;54.36;100909.69;4751885;29;47529;-61
2023/03/21 05:01:30;;;;;;;;;5.80;4.20;;;;;12.32;54.13;100899.84;4752123;29;45245;-61
2023/03/21 05:04:01;;;;;;;;;4.00;4.00;;;;;12.34;54.34;100911.47;4721518;29;45535;-60
2023/03/21 05:06:27;;;;;;;;;5.20;4.00;;;;;12.41;55.02;100913.34;4709615;29;45617;-60
2023/03/21 05:08:55;;;;;;;;;5.75;5.50;;;;;12.42;54.44;100904.88;4739745;29;46205;-60
2023/03/21 05:11:21;;;;;;;;;4.80;3.80;;;;;12.43;54.11;100894.72;4733952;29;45505;-61
2023/03/21 05:13:46;;;;;;;;;5.50;4.00;;;;;12.45;54.62;100906.34;4734905;29;45408;-60
2023/03/21 05:16:12;;;;;;;;;5.00;5.00;;;;;12.49;54.38;100902.06;4751449;29;45449;-60
2023/03/21 05:18:37;;;;;;;;;7.00;7.00;;;;;12.54;54.57;100905.00;4751034;29;45612;-61
2023/03/21 05:21:06;;;;;;;;;6.00;4.50;;;;;12.55;54.45;100900.34;4749175;29;45428;-60
2023/03/21 05:23:37;;;;;;;;;4.40;4.40;;;;;12.55;54.34;100900.34;4751719;29;45808;-61
2023/03/21 05:26:06;;;;;;;;;5.40;4.00;;;;;12.38;54.65;100881.59;4750397;29;45662;-59
2023/03/21 05:28:35;;;;;;;;;6.80;5.20;;;;;12.46;54.90;100900.63;4750960;29;46331;-60
2023/03/21 05:31:02;;;;;;;;;6.40;4.00;;;;;12.45;54.73;100898.91;4750921;29;45467;-60
2023/03/21 05:33:27;;;;;;;;;5.60;5.60;;;;;12.50;54.91;100902.91;4750247;29;45486;-60
2023/03/21 05:35:53;;;;;;;;;3.50;2.00;;;;;12.50;55.02;100901.03;4750020;29;45402;-61
2023/03/21 05:38:18;;;;;;;;;4.75;4.25;;;;;12.51;55.36;100901.84;4751586;29;46178;-60
2023/03/21 05:40:48;;;;;;;;;6.00;6.00;;;;;12.29;55.48;100861.75;4750094;29;46033;-60
2023/03/21 05:43:13;;;;;;;;;7.80;5.40;;;;;12.50;56.13;100895.50;4751272;29;45238;-60
2023/03/21 05:45:39;;;;;;;;;8.50;4.75;;;;;12.36;55.68;100878.22;4750287;29;45604;-61
2023/03/21 05:48:05;;;;;;;;;7.75;5.00;;;;;12.42;55.73;100887.50;4751419;29;45566;-60
2023/03/21 05:50:30;;;;;;;;;8.60;6.20;;;;;12.26;55.76;100892.47;4749303;29;45561;-59
2023/03/21 05:52:56;;;;;;;;;6.00;4.00;;;;;12.27;56.57;100898.81;4749785;29;45439;-60
2023/03/21 05:55:21;;;;;;;;;8.00;5.25;;;;;12.25;57.33;100899.03;4751548;29;45498;-59
2023/03/21 05:57:47;;;;;;;;;7.25;5.00;;;;;12.30;57.78;100901.13;4751285;29;45559;-60
2023/03/21 06:00:13;;;;;;;;;6.00;6.00;;;;;12.24;57.57;100890.97;4749874;29;45669;-60
2023/03/21 06:02:39;;;;;;;;;9.40;6.40;;;;;12.25;57.08;100890.78;4750135;29;45391;-61
2023/03/21 06:05:05;;;;;;;;;5.00;5.00;;;;;12.29;57.21;100900.28;4745196;29;45282;-60
2023/03/21 06:07:31;;;;;;;;;10.00;5.75;;;;;12.26;57.37;100892.47;4741033;29;45814;-60
2023/03/21 06:09:56;;;;;;;;;8.60;6.20;;;;;12.22;57.84;100893.94;4751130;29;45336;-60
2023/03/21 06:12:22;;;;;;;;;8.25;6.25;;;;;12.13;58.03;100881.53;4750046;29;45305;-60
2023/03/21 06:14:47;;;;;;;;;6.00;6.00;;;;;12.20;58.52;100896.09;4734827;29;45361;-62
2023/03/21 06:17:13;;;;;;;;;6.00;6.00;;;;;12.07;58.17;100886.81;4749584;29;48452;-61
2023/03/21 06:19:38;;;;;;;;;9.50;6.00;;;;;12.17;58.76;100897.38;4750129;29;45303;-61
2023/03/21 06:22:04;;;;;;;;;9.25;6.25;;;;;11.85;58.04;100845.00;4749791;29;45353;-60
2023/03/21 06:24:30;;;;;;;;;7.75;7.50;;;;;12.13;58.38;100900.78;4751153;29;45484;-61
2023/03/21 06:26:56;;;;;;;;;8.75;8.00;;;;;12.13;58.66;100918.16;4749305;29;47532;-61
2023/03/21 06:29:21;;;;;;;;;9.25;8.25;;;;;11.84;58.52;100864.47;4734533;29;45483;-60
2023/03/21 06:31:47;;;;;;;;;5.00;5.00;;;;;12.16;58.56;100914.09;4751092;29;45409;-61
2023/03/21 06:34:12;;;;;;;;;11.00;8.00;;;;;12.18;58.59;100910.06;4750923;29;45432;-61
2023/03/21 06:36:38;;;;;;;;;7.50;7.50;;;;;12.14;58.55;100910.72;4750620;29;46496;-61
2023/03/21 06:39:04;;;;;;;;;10.25;7.25;;;;;12.07;58.07;100903.34;4751216;29;45577;-61
2023/03/21 06:41:30;;;;;;;;;9.20;9.20;;;;;12.04;59.13;100902.94;4753963;29;45770;-62
2023/03/21 06:43:55;;;;;;;;;8.00;8.00;;;;;12.02;58.71;100903.09;4754354;29;45860;-60
2023/03/21 06:46:21;;;;;;;;;9.00;9.00;;;;;11.96;59.19;100895.75;4753788;29;46595;-60
2023/03/21 06:48:46;;;;;;;;;7.75;6.25;;;;;11.90;59.19;100882.88;4737867;29;45807;-61
2023/03/21 06:51:12;;;;;;;;;9.25;7.75;;;;;11.89;59.50;100878.41;4752247;29;45364;-59
2023/03/21 06:53:38;;;;;;;;;9.80;9.20;;;;;11.92;59.12;100889.81;4753060;29;45450;-61
2023/03/21 06:56:04;;;;;;;;;10.75;9.25;;;;;11.99;59.27;100875.19;4752346;29;47658;-62
2023/03/21 06:58:30;;;;;;;;;9.40;8.60;;;;;11.97;58.89;100875.44;4752394;29;45396;-60
2023/03/21 07:00:58;;;;;;;;;8.00;7.00;;;;;11.70;59.11;100839.78;4753706;29;45322;-61
2023/03/21 07:03:24;;;;;;;;;9.40;8.80;;;;;11.72;59.29;100842.28;4753392;29;45427;-61
2023/03/21 07:05:50;;;;;;;;;9.20;8.20;;;;;11.98;59.13;100877.13;4747668;29;46091;-61
2023/03/21 07:08:16;;;;;;;;;10.25;10.00;;;;;12.03;59.12;100874.59;4736522;29;45355;-60
2023/03/21 07:10:42;;;;;;;;;9.60;9.60;;;;;11.91;59.05;100844.13;4735723;29;45306;-60
2023/03/21 07:13:08;;;;;;;;;7.80;7.80;;;;;12.10;58.97;100869.03;4749377;29;45633;-60
2023/03/21 07:15:36;;;;;;;;;9.75;7.50;;;;;12.07;59.62;100875.00;4735485;29;45371;-61
2023/03/21 07:18:05;;;;;;;;;11.80;10.00;;;;;11.89;59.26;100827.00;4736060;29;45433;-60
2023/03/21 07:20:30;;;;;;;;;16.00;11.00;;;;;12.06;59.08;100862.28;4719788;30;45342;-60
2023/03/21 07:22:56;;;;;;;;;12.00;9.75;;;;;11.92;58.89;100821.06;4736455;29;45237;-60
2023/03/21 07:25:22;;;;;;;;;10.80;10.60;;;;;12.20;58.83;100874.94;4735925;30;46333;-60
2023/03/21 07:27:51;;;;;;;;;13.25;11.50;;;;;12.25;58.98;100874.25;4719320;30;45329;-60
2023/03/21 07:30:16;;;;;;;;;8.40;8.40;;;;;12.30;58.60;100877.22;4735889;29;45332;-61
2023/03/21 07:32:44;;;;;;;;;11.50;10.25;;;;;12.33;58.65;100887.75;4752160;29;45619;-61
2023/03/21 07:35:11;;;;;;;;;11.60;10.40;;;;;12.29;58.46;100875.53;4753535;29;46186;-61
2023/03/21 07:37:37;;;;;;;;;7.60;7.20;;;;;12.22;58.25;100869.19;4753127;29;45323;-60
2023/03/21 07:40:08;;;;;;;;;12.50;11.00;;;;;12.32;58.21;100879.72;4753519;29;45373;-58
2023/03/21 07:42:34;;;;;;;;;10.60;10.60;;;;;12.04;58.39;100814.91;4752917;29;45383;-59
2023/03/21 07:44:59;;;;;;;;;10.75;10.00;;;;;12.06;58.21;100830.13;4751907;29;46413;-60
2023/03/21 07:47:25;;;;;;;;;10.00;9.00;;;;;12.31;58.24;100867.88;4736763;29;45367;-59
2023/03/21 07:49:50;;;;;;;;;11.50;9.75;;;;;12.40;58.31;100864.88;4753124;29;45347;-61
2023/03/21 07:52:16;;;;;;;;;12.25;11.50;;;;;12.42;58.78;100843.44;4753142;29;45326;-61
2023/03/21 07:54:41;;;;;;;;;9.00;8.00;;;;;12.47;58.09;100844.50;4752822;29;45344;-61
2023/03/21 07:57:07;;;;;;;;;12.25;10.75;;;;;12.44;58.38;100824.81;4752914;29;45335;-61
2023/03/21 07:59:32;;;;;;;;;9.75;9.75;;;;;12.23;58.38;100780.09;4751813;29;45394;-59
2023/03/21 08:01:58;;;;;;;;;11.75;10.75;;;;;12.31;58.56;100806.47;4752098;29;45491;-61
2023/03/21 08:04:24;;;;;;;;;11.00;9.75;;;;;12.37;58.47;100826.78;4751623;29;46463;-59
2023/03/21 08:06:50;;;;;;;;;11.40;11.20;;;;;12.40;58.75;100834.59;4752167;29;45534;-59
2023/03/21 08:09:15;;;;;;;;;13.25;11.50;;;;;12.43;58.55;100846.00;4753292;29;45408;-61
2023/03/21 08:11:41;;;;;;;;;11.00;11.00;;;;;12.36;58.56;100858.97;4753165;29;45332;-61
2023/03/21 08:14:06;;;;;;;;;11.75;9.25;;;;;12.43;58.41;100861.69;4751271;29;47241;-60
2023/03/21 08:16:32;;;;;;;;;10.75;10.75;;;;;12.27;58.80;100861.13;4751695;29;45439;-62
2023/03/21 08:18:57;;;;;;;;;12.25;11.25;;;;;12.47;59.20;100887.69;4751915;29;45360;-61
2023/03/21 08:21:23;;;;;;;;;11.25;11.25;;;;;12.27;58.67;100874.88;4751778;29;45476;-60
2023/03/21 08:23:48;;;;;;;;;14.50;13.25;;;;;12.50;58.91;100908.41;4751346;29;45497;-61
2023/03/21 08:26:17;;;;;;;;;13.00;9.00;;;;;12.44;58.77;100888.97;4753153;29;45436;-60
2023/03/21 08:28:43;;;;;;;;;13.20;12.40;;;;;12.58;58.62;100889.72;4722039;29;45566;-61
2023/03/21 08:31:09;;;;;;;;;13.40;12.60;;;;;12.62;58.47;100895.63;4726470;29;45522;-61
2023/03/21 08:33:35;;;;;;;;;12.20;10.20;;;;;12.72;58.71;100889.66;4742391;29;45717;-62
2023/03/21 08:36:00;;;;;;;;;13.00;11.50;;;;;12.76;58.49;100870.75;4734819;29;45433;-60
2023/03/21 08:38:32;;;;;;;;;11.25;11.00;;;;;12.82;58.05;100869.88;4733436;30;45616;-60
2023/03/21 08:41:01;;;;;;;;;11.60;10.40;;;;;12.86;58.29;100836.13;4734762;29;45389;-60
2023/03/21 08:43:27;;;;;;;;;9.20;9.20;;;;;12.94;57.86;100846.03;4736850;29;45496;-62
2023/03/21 08:45:53;;;;;;;;;10.00;10.00;;;;;12.96;57.94;100838.38;4740893;29;45519;-60
2023/03/21 08:48:18;;;;;;;;;10.25;9.75;;;;;13.14;57.30;100878.09;4754343;29;45658;-60
2023/03/21 08:50:44;;;;;;;;;14.75;14.75;;;;;12.99;57.85;100848.13;4763445;29;45587;-59
2023/03/21 08:53:09;;;;;;;;;13.00;11.25;;;;;13.30;57.77;100893.22;4747549;29;45810;-59
2023/03/21 08:55:35;;;;;;;;;12.25;10.00;;;;;13.40;57.16;100896.28;4752276;29;45375;-61
2023/03/21 08:58:00;;;;;;;;;12.00;10.75;;;;;13.41;57.17;100900.72;4752046;29;45451;-59
2023/03/21 09:00:26;;;;;;;;;11.50;11.50;;;;;13.48;56.95;100888.81;4751023;29;45390;-59
2023/03/21 09:02:53;;;;;;;;;13.00;10.00;;;;;13.57;57.38;100878.31;4749847;29;46502;-59
2023/03/21 09:05:19;;;;;;;;;10.80;9.60;;;;;13.57;57.26;100887.44;4752099;29;45947;-59
2023/03/21 09:07:44;;;;;;;;;11.75;8.50;;;;;13.63;56.98;100896.72;4752106;29;45463;-59
2023/03/21 09:10:15;;;;;;;;;9.75;7.25;;;;;13.51;56.89;100904.91;4750539;29;45458;-59
2023/03/21 09:12:41;;;;;;;;;9.60;8.60;;;;;13.62;57.01;100901.41;4735620;29;47500;-59
2023/03/21 09:15:08;;;;;;;;;10.00;10.00;;;;;13.38;56.87;100840.53;4751246;29;45467;-60
2023/03/21 09:17:35;;;;;;;;;5.60;5.40;;;;;13.81;56.61;100891.22;4751824;29;45238;-61
2023/03/21 09:20:07;;;;;;;;;6.00;5.00;;;;;13.87;56.93;100907.91;4743607;29;45432;-60
2023/03/21 09:22:33;;;;;;;;;11.20;9.80;;;;;13.89;56.68;100908.53;4756903;29;48661;-61
2023/03/21 09:25:03;;;;;;;;;8.20;7.00;;;;;13.87;56.04;100897.72;4743594;29;45494;-61
2023/03/21 09:27:29;;;;;;;;;7.00;6.20;;;;;13.91;56.05;100887.06;4704785;29;45815;-61
2023/03/21 09:29:56;;;;;;;;;6.40;5.80;;;;;13.88;56.18;100866.28;4750835;29;45420;-60
2023/03/21 09:32:22;;;;;;;;;6.40;5.40;;;;;13.79;56.25;100860.25;4747164;29;46683;-61
2023/03/21 09:34:47;;;;;;;;;7.00;5.00;;;;;13.88;56.50;100887.53;4750466;29;45458;-60
2023/03/21 09:37:14;;;;;;;;;9.75;7.00;;;;;13.86;56.89;100892.44;4749069;29;45303;-61
2023/03/21 09:39:41;;;;;;;;;7.00;6.00;;;;;13.89;56.75;100892.81;4749240;29;45423;-60
2023/03/21 09:42:26;;;;;;;;;9.20;9.20;;;;;13.90;57.34;100897.25;4750019;29;46778;-60
2023/03/21 09:45:05;;;;;;;;;7.60;6.40;;;;;13.90;56.81;100905.53;4748891;29;45756;-60
2023/03/21 09:47:36;;;;;;;;;6.80;5.40;;;;;13.89;57.03;100903.88;4749974;29;45410;-61
2023/03/21 09:50:26;;;;;;;;;6.80;6.80;;;;;13.57;56.91;100854.38;4717231;30;46025;-61
2023/03/21 09:52:57;;;;;;;;;8.40;7.40;;;;;13.78;56.84;100888.91;4731982;29;46440;-61
2023/03/21 09:55:29;;;;;;;;;6.40;6.40;;;;;13.83;57.13;100893.75;4747258;29;45369;-60
2023/03/21 09:58:19;;;;;;;;;8.60;7.00;;;;;13.90;56.92;100893.66;4726869;29;46115;-61
2023/03/21 10:00:46;;;;;;;;;6.00;5.80;;;;;13.89;56.91;100869.91;4759220;29;45462;-61
2023/03/21 10:03:23;;;;;;;;;10.00;6.00;;;;;13.93;56.46;100874.72;4742967;29;46190;-60
2023/03/21 10:05:51;;;;;;;;;8.80;5.60;;;;;13.94;56.57;100859.84;4737532;29;45424;-60
2023/03/21 10:08:21;;;;;;;;;6.00;5.00;;;;;14.21;56.20;100880.75;4746712;29;45908;-61
2023/03/21 10:10:49;;;;;;;;;5.40;5.00;;;;;14.43;56.08;100894.88;4729664;29;45578;-60
2023/03/21 10:13:19;;;;;;;;;6.60;5.20;;;;;14.56;56.04;100899.38;4740915;29;46990;-60
2023/03/21 10:15:45;;;;;;;;;6.00;6.00;;;;;14.46;55.67;100871.50;4741263;29;45505;-61
2023/03/21 10:18:15;;;;;;;;;6.50;6.50;;;;;14.71;55.66;100906.38;4753681;29;45926;-62
2023/03/21 10:20:40;;;;;;;;;6.40;5.00;;;;;14.74;55.62;100906.78;4766003;29;45501;-60
2023/03/21 10:23:11;;;;;;;;;6.25;3.75;;;;;14.74;55.23;100906.78;4731551;29;46365;-61
2023/03/21 10:25:50;;;;;;;;;6.40;4.80;;;;;14.65;55.53;100908.16;4748107;29;45495;-62
2023/03/21 10:28:21;;;;;;;;;6.40;6.00;;;;;14.67;55.48;100900.47;4744148;29;47194;-61
2023/03/21 10:30:54;;;;;;;;;4.00;4.00;;;;;14.63;55.68;100880.78;4725156;29;45622;-59
2023/03/21 10:33:24;;;;;;;;;4.80;4.80;;;;;14.74;55.87;100904.00;4725176;29;45868;-60
2023/03/21 10:35:52;;;;;;;;;6.00;6.00;;;;;14.74;56.59;100906.78;4730221;29;45615;-61
2023/03/21 10:38:19;;;;;;;;;5.00;5.00;;;;;14.82;56.17;100900.06;4765127;29;45537;-63
2023/03/21 10:40:47;;;;;;;;;7.00;5.60;;;;;14.92;55.59;100885.69;4764674;29;45570;-62
2023/03/21 10:43:33;;;;;;;;;3.40;3.40;;;;;15.16;55.08;100883.78;4766020;29;46016;-61
2023/03/21 10:46:05;;;;;;;;;5.60;5.00;;;;;15.26;55.03;100897.00;4757977;29;45485;-63
2023/03/21 10:48:34;;;;;;;;;7.60;4.80;;;;;15.51;54.74;100876.56;4766016;29;45451;-62
2023/03/21 10:51:00;;;;;;;;;6.00;4.60;;;;;15.75;54.02;100889.53;4764418;29;45441;-63
2023/03/21 10:53:40;;;;;;;;;4.75;4.75;;;;;15.94;54.11;100868.94;4766051;29;45906;-62
2023/03/21 10:56:08;;;;;;;;;6.20;5.20;;;;;16.08;53.68;100885.28;4750438;29;45406;-62
2023/03/21 10:58:46;;;;;;;;;4.20;2.20;;;;;16.02;54.02;100887.09;4748942;29;49553;-61
2023/03/21 11:01:15;;;;;;;;;5.00;4.40;;;;;16.24;53.49;100880.88;4730917;29;45595;-61
2023/03/21 11:03:45;;;;;;;;;6.40;5.20;;;;;16.26;53.10;100878.69;4732350;29;45639;-62
2023/03/21 11:06:32;;;;;;;;;7.60;7.60;;;;;16.21;53.50;100879.44;4760460;29;45463;-62
2023/03/21 11:09:07;;;;;;;;;5.60;5.40;;;;;16.22;53.47;100880.28;4745429;29;45599;-61
2023/03/21 11:12:02;;;;;;;;;4.40;3.60;;;;;16.21;53.36;100878.59;4745717;29;45788;-63
2023/03/21 11:14:38;;;;;;;;;6.60;5.40;;;;;16.33;53.48;100875.78;4730767;29;45632;-63
2023/03/21 11:17:16;;;;;;;;;9.00;6.40;;;;;16.51;52.88;100872.81;4730991;30;45474;-62
2023/03/21 11:19:48;;;;;;;;;5.40;4.80;;;;;16.75;52.76;100880.16;4736351;29;45679;-62
2023/03/21 11:22:14;;;;;;;;;6.40;4.60;;;;;16.69;52.37;100837.66;4743364;29;45611;-62
2023/03/21 11:24:39;;;;;;;;;3.00;3.00;;;;;17.07;52.06;100871.28;4732332;29;45558;-61